Aviation Digital Data Service (ADDS)

Output produced by METARs form (1159 UTC 24 February 2018)
found at http://www.aviationweather.gov/adds/metars/
 
TAF TLPC 241104Z 2412/2512 08011G22KT 9999 SCT025 
     TEMPO 2412/2500 SHRA BKN020 SCT040
       
TAF TLPL 241104Z 2412/2512 07020KT 9999 SCT025 
     TEMPO 2412/2500 SHRA BKN020 SCT040